sensor_id;sensor_type;location;lat;lon;timestamp;P1;durP1;ratioP1;P2;durP2;ratioP2
56423;SDS011;42329;43.516;3.684;2022-10-31T00:02:01;28.35;;;17.33;;
56423;SDS011;42329;43.516;3.684;2022-10-31T00:04:28;30.65;;;18.58;;
56423;SDS011;42329;43.516;3.684;2022-10-31T00:06:56;38.45;;;19.63;;
56423;SDS011;42329;43.516;3.684;2022-10-31T00:09:24;28.25;;;17.75;;
56423;SDS011;42329;43.516;3.684;2022-10-31T00:11:51;35.72;;;19.42;;
56423;SDS011;42329;43.516;3.684;2022-10-31T00:14:19;29.45;;;19.30;;
56423;SDS011;42329;43.516;3.684;2022-10-31T00:16:46;38.53;;;20.30;;
56423;SDS011;42329;43.516;3.684;2022-10-31T00:19:15;26.30;;;17.73;;
56423;SDS011;42329;43.516;3.684;2022-10-31T00:21:42;26.10;;;16.45;;
56423;SDS011;42329;43.516;3.684;2022-10-31T00:24:10;26.27;;;17.70;;
56423;SDS011;42329;43.516;3.684;2022-10-31T00:26:37;30.70;;;18.20;;
56423;SDS011;42329;43.516;3.684;2022-10-31T00:29:05;31.08;;;19.20;;
56423;SDS011;42329;43.516;3.684;2022-10-31T00:31:32;26.67;;;16.90;;
56423;SDS011;42329;43.516;3.684;2022-10-31T00:34:00;25.80;;;17.70;;
56423;SDS011;42329;43.516;3.684;2022-10-31T00:36:30;30.70;;;18.02;;
56423;SDS011;42329;43.516;3.684;2022-10-31T00:38:57;37.08;;;18.85;;
56423;SDS011;42329;43.516;3.684;2022-10-31T00:41:26;28.58;;;17.25;;
56423;SDS011;42329;43.516;3.684;2022-10-31T00:43:54;27.08;;;16.85;;
56423;SDS011;42329;43.516;3.684;2022-10-31T00:46:21;25.20;;;16.92;;
56423;SDS011;42329;43.516;3.684;2022-10-31T00:48:49;26.77;;;16.90;;
56423;SDS011;42329;43.516;3.684;2022-10-31T00:51:16;22.98;;;15.57;;
56423;SDS011;42329;43.516;3.684;2022-10-31T00:53:45;22.65;;;15.48;;
56423;SDS011;42329;43.516;3.684;2022-10-31T00:56:12;25.90;;;16.55;;
56423;SDS011;42329;43.516;3.684;2022-10-31T00:58:40;27.88;;;18.35;;
56423;SDS011;42329;43.516;3.684;2022-10-31T01:01:07;31.50;;;18.85;;
56423;SDS011;42329;43.516;3.684;2022-10-31T01:03:35;34.83;;;19.33;;
56423;SDS011;42329;43.516;3.684;2022-10-31T01:06:04;33.95;;;18.13;;
56423;SDS011;42329;43.516;3.684;2022-10-31T01:08:32;31.17;;;20.10;;
56423;SDS011;42329;43.516;3.684;2022-10-31T01:11:03;29.83;;;19.30;;
56423;SDS011;42329;43.516;3.684;2022-10-31T01:13:30;38.55;;;20.95;;
56423;SDS011;42329;43.516;3.684;2022-10-31T01:15:58;32.88;;;21.27;;
56423;SDS011;42329;43.516;3.684;2022-10-31T01:18:26;36.33;;;22.55;;
56423;SDS011;42329;43.516;3.684;2022-10-31T01:20:58;39.40;;;24.60;;
56423;SDS011;42329;43.516;3.684;2022-10-31T01:23:26;50.53;;;24.85;;
56423;SDS011;42329;43.516;3.684;2022-10-31T01:26:02;38.08;;;24.60;;
56423;SDS011;42329;43.516;3.684;2022-10-31T01:28:30;34.95;;;24.42;;
56423;SDS011;42329;43.516;3.684;2022-10-31T01:31:00;38.58;;;24.10;;
56423;SDS011;42329;43.516;3.684;2022-10-31T01:33:27;40.20;;;24.60;;
56423;SDS011;42329;43.516;3.684;2022-10-31T01:35:55;43.63;;;24.80;;
56423;SDS011;42329;43.516;3.684;2022-10-31T01:38:23;41.08;;;25.67;;
56423;SDS011;42329;43.516;3.684;2022-10-31T01:40:50;43.72;;;27.33;;
56423;SDS011;42329;43.516;3.684;2022-10-31T01:43:19;44.88;;;27.55;;
56423;SDS011;42329;43.516;3.684;2022-10-31T01:45:50;44.88;;;26.58;;
56423;SDS011;42329;43.516;3.684;2022-10-31T01:48:19;39.50;;;26.85;;
56423;SDS011;42329;43.516;3.684;2022-10-31T01:50:47;47.13;;;28.55;;
56423;SDS011;42329;43.516;3.684;2022-10-31T01:53:15;46.53;;;29.38;;
56423;SDS011;42329;43.516;3.684;2022-10-31T01:55:44;50.10;;;26.90;;
56423;SDS011;42329;43.516;3.684;2022-10-31T01:58:13;48.60;;;26.90;;
56423;SDS011;42329;43.516;3.684;2022-10-31T02:00:43;48.05;;;28.80;;
56423;SDS011;42329;43.516;3.684;2022-10-31T02:03:12;42.50;;;26.08;;
56423;SDS011;42329;43.516;3.684;2022-10-31T02:05:39;44.78;;;26.27;;
56423;SDS011;42329;43.516;3.684;2022-10-31T02:08:10;43.35;;;26.23;;
56423;SDS011;42329;43.516;3.684;2022-10-31T02:10:39;47.05;;;28.35;;
56423;SDS011;42329;43.516;3.684;2022-10-31T02:13:07;48.65;;;25.90;;
56423;SDS011;42329;43.516;3.684;2022-10-31T02:15:36;48.22;;;25.48;;
56423;SDS011;42329;43.516;3.684;2022-10-31T02:18:06;40.78;;;25.88;;
56423;SDS011;42329;43.516;3.684;2022-10-31T02:20:36;44.53;;;24.92;;
56423;SDS011;42329;43.516;3.684;2022-10-31T02:26:09;35.45;;;23.48;;
56423;SDS011;42329;43.516;3.684;2022-10-31T02:28:47;39.88;;;22.90;;
56423;SDS011;42329;43.516;3.684;2022-10-31T02:31:24;40.78;;;22.85;;
56423;SDS011;42329;43.516;3.684;2022-10-31T02:33:55;35.55;;;20.30;;
56423;SDS011;42329;43.516;3.684;2022-10-31T02:36:26;36.40;;;22.30;;
56423;SDS011;42329;43.516;3.684;2022-10-31T02:38:58;35.25;;;22.13;;
56423;SDS011;42329;43.516;3.684;2022-10-31T02:41:28;38.85;;;20.70;;
56423;SDS011;42329;43.516;3.684;2022-10-31T02:44:00;32.92;;;20.73;;
56423;SDS011;42329;43.516;3.684;2022-10-31T02:46:32;30.60;;;19.95;;
56423;SDS011;42329;43.516;3.684;2022-10-31T02:49:03;36.85;;;20.02;;
56423;SDS011;42329;43.516;3.684;2022-10-31T02:51:32;33.63;;;19.00;;
56423;SDS011;42329;43.516;3.684;2022-10-31T02:54:00;28.80;;;18.45;;
56423;SDS011;42329;43.516;3.684;2022-10-31T02:56:28;35.67;;;20.00;;
56423;SDS011;42329;43.516;3.684;2022-10-31T02:58:56;39.40;;;19.85;;
56423;SDS011;42329;43.516;3.684;2022-10-31T03:01:28;26.75;;;18.83;;
56423;SDS011;42329;43.516;3.684;2022-10-31T03:04:02;30.67;;;19.27;;
56423;SDS011;42329;43.516;3.684;2022-10-31T03:06:37;32.72;;;18.83;;
56423;SDS011;42329;43.516;3.684;2022-10-31T03:09:09;36.15;;;19.83;;
56423;SDS011;42329;43.516;3.684;2022-10-31T03:11:45;38.63;;;20.00;;
56423;SDS011;42329;43.516;3.684;2022-10-31T03:14:17;33.05;;;19.08;;
56423;SDS011;42329;43.516;3.684;2022-10-31T03:16:48;41.15;;;20.90;;
56423;SDS011;42329;43.516;3.684;2022-10-31T03:19:18;37.20;;;19.67;;
56423;SDS011;42329;43.516;3.684;2022-10-31T03:21:47;28.67;;;17.90;;
56423;SDS011;42329;43.516;3.684;2022-10-31T03:24:16;27.33;;;16.95;;
56423;SDS011;42329;43.516;3.684;2022-10-31T03:26:46;32.85;;;18.52;;
56423;SDS011;42329;43.516;3.684;2022-10-31T03:29:15;33.17;;;19.77;;
56423;SDS011;42329;43.516;3.684;2022-10-31T03:31:44;27.42;;;18.08;;
56423;SDS011;42329;43.516;3.684;2022-10-31T03:34:13;33.03;;;18.73;;
56423;SDS011;42329;43.516;3.684;2022-10-31T03:36:44;35.60;;;19.33;;
56423;SDS011;42329;43.516;3.684;2022-10-31T03:39:12;31.35;;;19.55;;
56423;SDS011;42329;43.516;3.684;2022-10-31T03:41:41;30.90;;;20.13;;
56423;SDS011;42329;43.516;3.684;2022-10-31T03:44:10;35.05;;;19.23;;
56423;SDS011;42329;43.516;3.684;2022-10-31T03:46:39;27.50;;;17.92;;
56423;SDS011;42329;43.516;3.684;2022-10-31T03:49:07;30.35;;;17.67;;
56423;SDS011;42329;43.516;3.684;2022-10-31T03:51:36;30.23;;;17.90;;
56423;SDS011;42329;43.516;3.684;2022-10-31T03:54:08;35.70;;;19.20;;
56423;SDS011;42329;43.516;3.684;2022-10-31T03:56:39;29.65;;;19.00;;
56423;SDS011;42329;43.516;3.684;2022-10-31T03:59:08;32.45;;;18.88;;
56423;SDS011;42329;43.516;3.684;2022-10-31T04:01:38;29.05;;;18.55;;
56423;SDS011;42329;43.516;3.684;2022-10-31T04:04:07;30.98;;;18.27;;
56423;SDS011;42329;43.516;3.684;2022-10-31T04:06:36;27.90;;;17.73;;
56423;SDS011;42329;43.516;3.684;2022-10-31T04:09:05;35.10;;;17.30;;
56423;SDS011;42329;43.516;3.684;2022-10-31T04:11:35;29.13;;;17.70;;
56423;SDS011;42329;43.516;3.684;2022-10-31T04:14:03;32.85;;;17.77;;
56423;SDS011;42329;43.516;3.684;2022-10-31T04:16:31;31.67;;;18.77;;
56423;SDS011;42329;43.516;3.684;2022-10-31T04:18:59;30.40;;;17.88;;
56423;SDS011;42329;43.516;3.684;2022-10-31T04:21:27;29.08;;;17.63;;
56423;SDS011;42329;43.516;3.684;2022-10-31T04:23:54;32.97;;;18.55;;
56423;SDS011;42329;43.516;3.684;2022-10-31T04:26:22;27.02;;;17.25;;
56423;SDS011;42329;43.516;3.684;2022-10-31T04:28:51;29.05;;;18.52;;
56423;SDS011;42329;43.516;3.684;2022-10-31T04:31:18;27.60;;;18.42;;
56423;SDS011;42329;43.516;3.684;2022-10-31T04:33:46;28.45;;;18.10;;
56423;SDS011;42329;43.516;3.684;2022-10-31T04:36:13;31.90;;;17.10;;
56423;SDS011;42329;43.516;3.684;2022-10-31T04:38:41;28.15;;;18.38;;
56423;SDS011;42329;43.516;3.684;2022-10-31T04:41:08;32.53;;;18.50;;
56423;SDS011;42329;43.516;3.684;2022-10-31T04:43:36;30.95;;;19.60;;
56423;SDS011;42329;43.516;3.684;2022-10-31T04:46:05;35.50;;;17.88;;
56423;SDS011;42329;43.516;3.684;2022-10-31T04:48:32;31.52;;;18.05;;
56423;SDS011;42329;43.516;3.684;2022-10-31T04:51:00;27.15;;;16.90;;
56423;SDS011;42329;43.516;3.684;2022-10-31T04:53:28;39.40;;;18.60;;
56423;SDS011;42329;43.516;3.684;2022-10-31T04:55:57;37.90;;;17.17;;
56423;SDS011;42329;43.516;3.684;2022-10-31T04:58:25;29.55;;;17.35;;
56423;SDS011;42329;43.516;3.684;2022-10-31T05:00:53;29.13;;;16.13;;
56423;SDS011;42329;43.516;3.684;2022-10-31T05:03:22;30.50;;;17.00;;
56423;SDS011;42329;43.516;3.684;2022-10-31T05:05:49;32.17;;;16.23;;
56423;SDS011;42329;43.516;3.684;2022-10-31T05:08:17;34.20;;;16.38;;
56423;SDS011;42329;43.516;3.684;2022-10-31T05:10:44;29.10;;;15.40;;
56423;SDS011;42329;43.516;3.684;2022-10-31T05:13:12;28.60;;;16.15;;
56423;SDS011;42329;43.516;3.684;2022-10-31T05:15:40;32.97;;;17.13;;
56423;SDS011;42329;43.516;3.684;2022-10-31T05:18:08;27.75;;;15.30;;
56423;SDS011;42329;43.516;3.684;2022-10-31T05:20:36;26.52;;;15.02;;
56423;SDS011;42329;43.516;3.684;2022-10-31T05:23:04;27.38;;;15.50;;
56423;SDS011;42329;43.516;3.684;2022-10-31T05:25:31;28.02;;;15.55;;
56423;SDS011;42329;43.516;3.684;2022-10-31T05:27:59;27.17;;;14.73;;
56423;SDS011;42329;43.516;3.684;2022-10-31T05:30:27;26.45;;;16.33;;
56423;SDS011;42329;43.516;3.684;2022-10-31T05:32:55;27.70;;;15.88;;
56423;SDS011;42329;43.516;3.684;2022-10-31T05:35:23;22.50;;;15.02;;
56423;SDS011;42329;43.516;3.684;2022-10-31T05:37:52;29.92;;;15.70;;
56423;SDS011;42329;43.516;3.684;2022-10-31T05:40:20;30.63;;;16.40;;
56423;SDS011;42329;43.516;3.684;2022-10-31T05:42:50;32.05;;;16.60;;
56423;SDS011;42329;43.516;3.684;2022-10-31T05:45:17;26.73;;;16.98;;
56423;SDS011;42329;43.516;3.684;2022-10-31T05:47:49;36.75;;;15.98;;
56423;SDS011;42329;43.516;3.684;2022-10-31T05:50:17;26.42;;;16.05;;
56423;SDS011;42329;43.516;3.684;2022-10-31T05:52:45;32.30;;;15.77;;
56423;SDS011;42329;43.516;3.684;2022-10-31T05:55:13;32.60;;;16.08;;
56423;SDS011;42329;43.516;3.684;2022-10-31T05:57:41;29.60;;;16.10;;
56423;SDS011;42329;43.516;3.684;2022-10-31T06:00:09;40.58;;;17.30;;
56423;SDS011;42329;43.516;3.684;2022-10-31T06:02:36;33.65;;;15.77;;
56423;SDS011;42329;43.516;3.684;2022-10-31T06:05:04;31.02;;;15.27;;
56423;SDS011;42329;43.516;3.684;2022-10-31T06:07:32;30.40;;;15.40;;
56423;SDS011;42329;43.516;3.684;2022-10-31T06:10:00;28.27;;;15.15;;
56423;SDS011;42329;43.516;3.684;2022-10-31T06:12:29;35.17;;;17.15;;
56423;SDS011;42329;43.516;3.684;2022-10-31T06:14:57;32.28;;;16.23;;
56423;SDS011;42329;43.516;3.684;2022-10-31T06:17:24;34.72;;;15.82;;
56423;SDS011;42329;43.516;3.684;2022-10-31T06:19:52;33.20;;;15.45;;
56423;SDS011;42329;43.516;3.684;2022-10-31T06:22:19;28.17;;;15.40;;
56423;SDS011;42329;43.516;3.684;2022-10-31T06:24:47;31.95;;;15.77;;
56423;SDS011;42329;43.516;3.684;2022-10-31T06:27:14;30.77;;;15.55;;
56423;SDS011;42329;43.516;3.684;2022-10-31T06:29:43;27.45;;;15.75;;
56423;SDS011;42329;43.516;3.684;2022-10-31T06:32:11;28.38;;;14.95;;
56423;SDS011;42329;43.516;3.684;2022-10-31T06:34:39;26.83;;;14.50;;
56423;SDS011;42329;43.516;3.684;2022-10-31T06:37:07;27.02;;;14.43;;
56423;SDS011;42329;43.516;3.684;2022-10-31T06:39:35;33.53;;;15.50;;
56423;SDS011;42329;43.516;3.684;2022-10-31T06:42:02;29.20;;;15.60;;
56423;SDS011;42329;43.516;3.684;2022-10-31T06:44:30;27.38;;;15.13;;
56423;SDS011;42329;43.516;3.684;2022-10-31T06:46:59;33.92;;;14.43;;
56423;SDS011;42329;43.516;3.684;2022-10-31T06:49:26;30.52;;;13.90;;
56423;SDS011;42329;43.516;3.684;2022-10-31T06:51:54;25.52;;;14.93;;
56423;SDS011;42329;43.516;3.684;2022-10-31T06:54:21;23.67;;;14.40;;
56423;SDS011;42329;43.516;3.684;2022-10-31T06:56:49;28.33;;;14.48;;
56423;SDS011;42329;43.516;3.684;2022-10-31T06:59:16;25.95;;;15.10;;
56423;SDS011;42329;43.516;3.684;2022-10-31T07:01:44;27.90;;;14.85;;
56423;SDS011;42329;43.516;3.684;2022-10-31T07:04:13;30.98;;;14.52;;
56423;SDS011;42329;43.516;3.684;2022-10-31T07:06:41;29.35;;;14.52;;
56423;SDS011;42329;43.516;3.684;2022-10-31T07:09:08;28.00;;;14.68;;
56423;SDS011;42329;43.516;3.684;2022-10-31T07:11:36;28.20;;;14.88;;
56423;SDS011;42329;43.516;3.684;2022-10-31T07:14:03;26.92;;;15.55;;
56423;SDS011;42329;43.516;3.684;2022-10-31T07:16:30;27.60;;;14.38;;
56423;SDS011;42329;43.516;3.684;2022-10-31T07:18:58;24.25;;;16.05;;
56423;SDS011;42329;43.516;3.684;2022-10-31T07:21:27;28.40;;;15.20;;
56423;SDS011;42329;43.516;3.684;2022-10-31T07:23:54;29.35;;;15.75;;
56423;SDS011;42329;43.516;3.684;2022-10-31T07:26:22;32.58;;;15.73;;
56423;SDS011;42329;43.516;3.684;2022-10-31T07:28:49;24.80;;;14.90;;
56423;SDS011;42329;43.516;3.684;2022-10-31T07:31:17;27.42;;;14.02;;
56423;SDS011;42329;43.516;3.684;2022-10-31T07:33:44;32.55;;;15.30;;
56423;SDS011;42329;43.516;3.684;2022-10-31T07:36:12;26.67;;;14.52;;
56423;SDS011;42329;43.516;3.684;2022-10-31T07:38:41;33.53;;;14.73;;
56423;SDS011;42329;43.516;3.684;2022-10-31T07:41:08;33.40;;;14.43;;
56423;SDS011;42329;43.516;3.684;2022-10-31T07:43:35;30.05;;;14.25;;
56423;SDS011;42329;43.516;3.684;2022-10-31T07:46:03;30.63;;;14.75;;
56423;SDS011;42329;43.516;3.684;2022-10-31T07:48:30;29.30;;;14.90;;
56423;SDS011;42329;43.516;3.684;2022-10-31T07:50:58;29.63;;;14.43;;
56423;SDS011;42329;43.516;3.684;2022-10-31T07:53:25;29.80;;;12.85;;
56423;SDS011;42329;43.516;3.684;2022-10-31T07:55:54;31.75;;;13.63;;
56423;SDS011;42329;43.516;3.684;2022-10-31T07:58:22;26.98;;;13.75;;
56423;SDS011;42329;43.516;3.684;2022-10-31T08:00:50;29.75;;;13.60;;
56423;SDS011;42329;43.516;3.684;2022-10-31T08:03:18;25.83;;;13.38;;
56423;SDS011;42329;43.516;3.684;2022-10-31T08:05:45;24.60;;;12.93;;
56423;SDS011;42329;43.516;3.684;2022-10-31T08:08:13;22.17;;;12.48;;
56423;SDS011;42329;43.516;3.684;2022-10-31T08:10:41;27.70;;;12.90;;
56423;SDS011;42329;43.516;3.684;2022-10-31T08:13:10;26.17;;;12.27;;
56423;SDS011;42329;43.516;3.684;2022-10-31T08:15:38;27.23;;;12.98;;
56423;SDS011;42329;43.516;3.684;2022-10-31T08:18:09;25.27;;;12.60;;
56423;SDS011;42329;43.516;3.684;2022-10-31T08:20:37;27.47;;;13.10;;
56423;SDS011;42329;43.516;3.684;2022-10-31T08:23:05;21.02;;;12.30;;
56423;SDS011;42329;43.516;3.684;2022-10-31T08:25:33;26.60;;;12.27;;
56423;SDS011;42329;43.516;3.684;2022-10-31T08:28:01;30.27;;;13.15;;
56423;SDS011;42329;43.516;3.684;2022-10-31T08:30:31;24.13;;;12.15;;
56423;SDS011;42329;43.516;3.684;2022-10-31T08:32:59;23.58;;;12.00;;
56423;SDS011;42329;43.516;3.684;2022-10-31T08:35:27;28.10;;;12.23;;
56423;SDS011;42329;43.516;3.684;2022-10-31T08:37:54;23.35;;;12.50;;
56423;SDS011;42329;43.516;3.684;2022-10-31T08:40:22;27.77;;;12.38;;
56423;SDS011;42329;43.516;3.684;2022-10-31T08:42:59;24.63;;;11.85;;
56423;SDS011;42329;43.516;3.684;2022-10-31T08:45:27;25.85;;;11.70;;
56423;SDS011;42329;43.516;3.684;2022-10-31T08:47:59;22.08;;;11.35;;
56423;SDS011;42329;43.516;3.684;2022-10-31T08:50:27;27.58;;;12.23;;
56423;SDS011;42329;43.516;3.684;2022-10-31T08:52:59;25.33;;;11.02;;
56423;SDS011;42329;43.516;3.684;2022-10-31T08:55:27;24.02;;;11.43;;
56423;SDS011;42329;43.516;3.684;2022-10-31T08:57:55;20.55;;;11.73;;
56423;SDS011;42329;43.516;3.684;2022-10-31T09:00:22;21.90;;;10.80;;
56423;SDS011;42329;43.516;3.684;2022-10-31T09:02:54;26.58;;;10.45;;
56423;SDS011;42329;43.516;3.684;2022-10-31T09:05:23;24.95;;;11.75;;
56423;SDS011;42329;43.516;3.684;2022-10-31T09:07:51;27.30;;;11.10;;
56423;SDS011;42329;43.516;3.684;2022-10-31T09:10:22;24.17;;;10.35;;
56423;SDS011;42329;43.516;3.684;2022-10-31T09:12:54;26.35;;;10.43;;
56423;SDS011;42329;43.516;3.684;2022-10-31T09:15:21;38.20;;;12.45;;
56423;SDS011;42329;43.516;3.684;2022-10-31T09:17:49;33.97;;;12.27;;
56423;SDS011;42329;43.516;3.684;2022-10-31T09:20:16;28.58;;;12.05;;
56423;SDS011;42329;43.516;3.684;2022-10-31T09:22:45;43.78;;;12.82;;
56423;SDS011;42329;43.516;3.684;2022-10-31T09:25:13;23.70;;;10.98;;
56423;SDS011;42329;43.516;3.684;2022-10-31T09:27:40;26.92;;;9.55;;
56423;SDS011;42329;43.516;3.684;2022-10-31T09:30:08;30.80;;;9.23;;
56423;SDS011;42329;43.516;3.684;2022-10-31T09:32:36;23.50;;;8.27;;
56423;SDS011;42329;43.516;3.684;2022-10-31T09:35:03;22.10;;;8.55;;
56423;SDS011;42329;43.516;3.684;2022-10-31T09:37:31;30.13;;;8.75;;
56423;SDS011;42329;43.516;3.684;2022-10-31T09:40:00;34.15;;;8.48;;
56423;SDS011;42329;43.516;3.684;2022-10-31T09:45:17;23.80;;;7.60;;
56423;SDS011;42329;43.516;3.684;2022-10-31T09:47:52;28.73;;;8.50;;
56423;SDS011;42329;43.516;3.684;2022-10-31T09:50:24;28.95;;;8.57;;
56423;SDS011;42329;43.516;3.684;2022-10-31T09:52:54;34.35;;;8.60;;
56423;SDS011;42329;43.516;3.684;2022-10-31T09:55:27;35.58;;;8.43;;
56423;SDS011;42329;43.516;3.684;2022-10-31T09:57:57;31.67;;;8.20;;
56423;SDS011;42329;43.516;3.684;2022-10-31T10:00:26;23.75;;;6.95;;
56423;SDS011;42329;43.516;3.684;2022-10-31T10:02:56;26.02;;;7.43;;
56423;SDS011;42329;43.516;3.684;2022-10-31T10:05:24;28.55;;;8.05;;
56423;SDS011;42329;43.516;3.684;2022-10-31T10:07:54;22.23;;;7.63;;
56423;SDS011;42329;43.516;3.684;2022-10-31T10:10:24;21.98;;;7.18;;
56423;SDS011;42329;43.516;3.684;2022-10-31T10:15:35;23.48;;;7.53;;
56423;SDS011;42329;43.516;3.684;2022-10-31T10:18:05;22.63;;;8.70;;
56423;SDS011;42329;43.516;3.684;2022-10-31T10:20:38;25.23;;;7.45;;
56423;SDS011;42329;43.516;3.684;2022-10-31T10:23:14;27.63;;;7.55;;
56423;SDS011;42329;43.516;3.684;2022-10-31T10:25:45;28.95;;;6.40;;
56423;SDS011;42329;43.516;3.684;2022-10-31T10:28:17;29.83;;;8.55;;
56423;SDS011;42329;43.516;3.684;2022-10-31T10:30:48;32.40;;;8.70;;
56423;SDS011;42329;43.516;3.684;2022-10-31T10:33:18;32.90;;;8.15;;
56423;SDS011;42329;43.516;3.684;2022-10-31T10:35:47;23.55;;;7.40;;
56423;SDS011;42329;43.516;3.684;2022-10-31T10:38:19;27.80;;;7.47;;
56423;SDS011;42329;43.516;3.684;2022-10-31T10:40:48;23.70;;;7.90;;
56423;SDS011;42329;43.516;3.684;2022-10-31T10:43:21;30.42;;;8.15;;
56423;SDS011;42329;43.516;3.684;2022-10-31T10:45:51;24.85;;;7.40;;
56423;SDS011;42329;43.516;3.684;2022-10-31T10:48:42;25.15;;;7.28;;
56423;SDS011;42329;43.516;3.684;2022-10-31T10:51:14;23.45;;;6.60;;
56423;SDS011;42329;43.516;3.684;2022-10-31T10:53:44;26.25;;;7.15;;
56423;SDS011;42329;43.516;3.684;2022-10-31T10:56:30;31.23;;;7.05;;
56423;SDS011;42329;43.516;3.684;2022-10-31T10:58:59;26.30;;;8.20;;
56423;SDS011;42329;43.516;3.684;2022-10-31T11:01:28;25.08;;;7.05;;
56423;SDS011;42329;43.516;3.684;2022-10-31T11:03:56;19.77;;;6.32;;
56423;SDS011;42329;43.516;3.684;2022-10-31T11:06:23;32.42;;;8.15;;
56423;SDS011;42329;43.516;3.684;2022-10-31T11:08:52;27.13;;;7.35;;
56423;SDS011;42329;43.516;3.684;2022-10-31T11:11:23;30.65;;;7.85;;
56423;SDS011;42329;43.516;3.684;2022-10-31T11:13:54;27.50;;;7.95;;
56423;SDS011;42329;43.516;3.684;2022-10-31T11:16:28;24.60;;;7.13;;
56423;SDS011;42329;43.516;3.684;2022-10-31T11:19:05;20.65;;;6.53;;
56423;SDS011;42329;43.516;3.684;2022-10-31T11:21:33;24.52;;;7.63;;
56423;SDS011;42329;43.516;3.684;2022-10-31T11:24:02;23.08;;;6.93;;
56423;SDS011;42329;43.516;3.684;2022-10-31T11:26:29;31.05;;;7.30;;
56423;SDS011;42329;43.516;3.684;2022-10-31T11:29:00;25.27;;;6.87;;
56423;SDS011;42329;43.516;3.684;2022-10-31T11:31:30;24.13;;;8.38;;
56423;SDS011;42329;43.516;3.684;2022-10-31T11:33:58;29.55;;;7.32;;
56423;SDS011;42329;43.516;3.684;2022-10-31T11:36:27;23.40;;;6.82;;
56423;SDS011;42329;43.516;3.684;2022-10-31T11:38:54;24.33;;;6.68;;
56423;SDS011;42329;43.516;3.684;2022-10-31T11:41:24;28.00;;;8.63;;
56423;SDS011;42329;43.516;3.684;2022-10-31T11:43:53;24.23;;;7.70;;
56423;SDS011;42329;43.516;3.684;2022-10-31T11:46:22;28.40;;;6.95;;
56423;SDS011;42329;43.516;3.684;2022-10-31T11:48:53;31.65;;;8.23;;
56423;SDS011;42329;43.516;3.684;2022-10-31T11:51:22;26.27;;;7.40;;
56423;SDS011;42329;43.516;3.684;2022-10-31T11:53:51;26.48;;;7.32;;
56423;SDS011;42329;43.516;3.684;2022-10-31T11:56:19;30.80;;;8.18;;
56423;SDS011;42329;43.516;3.684;2022-10-31T11:58:54;28.70;;;7.65;;
56423;SDS011;42329;43.516;3.684;2022-10-31T12:01:24;22.95;;;7.65;;
56423;SDS011;42329;43.516;3.684;2022-10-31T12:03:57;25.90;;;7.30;;
56423;SDS011;42329;43.516;3.684;2022-10-31T12:06:28;23.70;;;7.13;;
56423;SDS011;42329;43.516;3.684;2022-10-31T12:08:59;28.05;;;7.65;;
56423;SDS011;42329;43.516;3.684;2022-10-31T12:11:39;26.23;;;8.00;;
56423;SDS011;42329;43.516;3.684;2022-10-31T12:14:21;22.92;;;6.85;;
56423;SDS011;42329;43.516;3.684;2022-10-31T12:16:56;33.15;;;8.05;;
56423;SDS011;42329;43.516;3.684;2022-10-31T12:19:35;33.20;;;8.45;;
56423;SDS011;42329;43.516;3.684;2022-10-31T12:22:08;26.20;;;7.95;;
56423;SDS011;42329;43.516;3.684;2022-10-31T12:24:47;35.58;;;8.60;;
56423;SDS011;42329;43.516;3.684;2022-10-31T12:27:27;28.10;;;7.53;;
56423;SDS011;42329;43.516;3.684;2022-10-31T12:30:02;29.45;;;7.60;;
56423;SDS011;42329;43.516;3.684;2022-10-31T12:32:47;24.15;;;8.00;;
56423;SDS011;42329;43.516;3.684;2022-10-31T12:35:36;26.10;;;8.07;;
56423;SDS011;42329;43.516;3.684;2022-10-31T12:38:16;27.83;;;6.88;;
56423;SDS011;42329;43.516;3.684;2022-10-31T12:43:25;32.03;;;8.10;;
56423;SDS011;42329;43.516;3.684;2022-10-31T12:45:57;28.98;;;8.48;;
56423;SDS011;42329;43.516;3.684;2022-10-31T12:48:33;29.55;;;7.38;;
56423;SDS011;42329;43.516;3.684;2022-10-31T12:51:08;25.67;;;7.88;;
56423;SDS011;42329;43.516;3.684;2022-10-31T12:53:42;29.25;;;7.38;;
56423;SDS011;42329;43.516;3.684;2022-10-31T12:56:19;27.92;;;7.50;;
56423;SDS011;42329;43.516;3.684;2022-10-31T12:58:53;28.92;;;9.27;;
56423;SDS011;42329;43.516;3.684;2022-10-31T13:01:24;30.35;;;7.82;;
56423;SDS011;42329;43.516;3.684;2022-10-31T13:03:55;27.30;;;7.93;;
56423;SDS011;42329;43.516;3.684;2022-10-31T13:06:27;31.17;;;8.23;;
56423;SDS011;42329;43.516;3.684;2022-10-31T13:08:57;36.63;;;8.07;;
56423;SDS011;42329;43.516;3.684;2022-10-31T13:11:27;30.67;;;8.05;;
56423;SDS011;42329;43.516;3.684;2022-10-31T13:13:58;27.88;;;8.13;;
56423;SDS011;42329;43.516;3.684;2022-10-31T13:16:29;27.73;;;7.70;;
56423;SDS011;42329;43.516;3.684;2022-10-31T13:18:58;27.40;;;8.52;;
56423;SDS011;42329;43.516;3.684;2022-10-31T13:21:30;33.63;;;8.93;;
56423;SDS011;42329;43.516;3.684;2022-10-31T13:23:58;29.42;;;9.15;;
56423;SDS011;42329;43.516;3.684;2022-10-31T13:26:31;36.60;;;8.93;;
56423;SDS011;42329;43.516;3.684;2022-10-31T13:29:01;34.92;;;8.80;;
56423;SDS011;42329;43.516;3.684;2022-10-31T13:31:29;33.85;;;9.48;;
56423;SDS011;42329;43.516;3.684;2022-10-31T13:33:58;30.70;;;8.23;;
56423;SDS011;42329;43.516;3.684;2022-10-31T13:36:31;21.48;;;7.68;;
56423;SDS011;42329;43.516;3.684;2022-10-31T13:39:03;33.95;;;9.35;;
56423;SDS011;42329;43.516;3.684;2022-10-31T13:41:35;24.95;;;8.25;;
56423;SDS011;42329;43.516;3.684;2022-10-31T13:44:13;32.08;;;9.00;;
56423;SDS011;42329;43.516;3.684;2022-10-31T13:46:41;24.95;;;8.48;;
56423;SDS011;42329;43.516;3.684;2022-10-31T13:49:26;28.15;;;8.27;;
56423;SDS011;42329;43.516;3.684;2022-10-31T13:52:13;24.88;;;7.85;;
56423;SDS011;42329;43.516;3.684;2022-10-31T13:54:41;29.75;;;8.77;;
56423;SDS011;42329;43.516;3.684;2022-10-31T13:57:14;21.77;;;8.10;;
56423;SDS011;42329;43.516;3.684;2022-10-31T13:59:46;30.80;;;9.27;;
56423;SDS011;42329;43.516;3.684;2022-10-31T14:02:15;31.63;;;8.23;;
56423;SDS011;42329;43.516;3.684;2022-10-31T14:04:44;24.38;;;8.90;;
56423;SDS011;42329;43.516;3.684;2022-10-31T14:07:14;29.15;;;8.48;;
56423;SDS011;42329;43.516;3.684;2022-10-31T14:09:52;30.42;;;7.70;;
56423;SDS011;42329;43.516;3.684;2022-10-31T14:12:22;30.05;;;9.23;;
56423;SDS011;42329;43.516;3.684;2022-10-31T14:14:52;42.90;;;8.85;;
56423;SDS011;42329;43.516;3.684;2022-10-31T14:20:19;29.23;;;7.72;;
56423;SDS011;42329;43.516;3.684;2022-10-31T14:22:50;27.70;;;9.55;;
56423;SDS011;42329;43.516;3.684;2022-10-31T14:25:28;33.80;;;9.25;;
56423;SDS011;42329;43.516;3.684;2022-10-31T14:27:56;34.17;;;8.40;;
56423;SDS011;42329;43.516;3.684;2022-10-31T14:30:24;29.83;;;9.13;;
56423;SDS011;42329;43.516;3.684;2022-10-31T14:32:53;28.13;;;8.05;;
56423;SDS011;42329;43.516;3.684;2022-10-31T14:35:23;30.67;;;8.80;;
56423;SDS011;42329;43.516;3.684;2022-10-31T14:43:15;32.55;;;8.85;;
56423;SDS011;42329;43.516;3.684;2022-10-31T14:46:07;30.30;;;9.93;;
56423;SDS011;42329;43.516;3.684;2022-10-31T14:48:50;32.88;;;8.40;;
56423;SDS011;42329;43.516;3.684;2022-10-31T14:51:29;28.55;;;9.13;;
56423;SDS011;42329;43.516;3.684;2022-10-31T14:54:01;37.60;;;9.80;;
56423;SDS011;42329;43.516;3.684;2022-10-31T14:56:31;29.23;;;9.43;;
56423;SDS011;42329;43.516;3.684;2022-10-31T14:59:09;33.72;;;9.20;;
56423;SDS011;42329;43.516;3.684;2022-10-31T15:01:53;30.48;;;8.30;;